sensor_id;sensor_type;location;lat;lon;timestamp;pressure;altitude;pressure_sealevel;temperature
10058;BMP180;5068;51.286;7.518;2022-11-24T00:01:19;98206.00;;;9.00
10058;BMP180;5068;51.286;7.518;2022-11-24T00:02:53;98217.00;;;9.00
10058;BMP180;5068;51.286;7.518;2022-11-24T00:04:25;98216.00;;;9.00
10058;BMP180;5068;51.286;7.518;2022-11-24T00:06:03;98221.00;;;9.00
10058;BMP180;5068;51.286;7.518;2022-11-24T00:07:37;98218.00;;;8.90
10058;BMP180;5068;51.286;7.518;2022-11-24T00:09:11;98224.00;;;8.90
10058;BMP180;5068;51.286;7.518;2022-11-24T00:10:45;98223.00;;;8.90
10058;BMP180;5068;51.286;7.518;2022-11-24T00:12:19;98227.00;;;8.90
10058;BMP180;5068;51.286;7.518;2022-11-24T00:13:53;98222.00;;;8.90
10058;BMP180;5068;51.286;7.518;2022-11-24T00:15:25;98226.00;;;8.90
10058;BMP180;5068;51.286;7.518;2022-11-24T00:16:58;98226.00;;;8.90
10058;BMP180;5068;51.286;7.518;2022-11-24T00:18:32;98229.00;;;8.90
10058;BMP180;5068;51.286;7.518;2022-11-24T00:20:06;98227.00;;;8.90
10058;BMP180;5068;51.286;7.518;2022-11-24T00:21:39;98232.00;;;8.90
10058;BMP180;5068;51.286;7.518;2022-11-24T00:23:13;98229.00;;;8.90
10058;BMP180;5068;51.286;7.518;2022-11-24T00:24:46;98219.00;;;8.90
10058;BMP180;5068;51.286;7.518;2022-11-24T00:26:21;98224.00;;;8.90
10058;BMP180;5068;51.286;7.518;2022-11-24T00:27:55;98222.00;;;8.90
10058;BMP180;5068;51.286;7.518;2022-11-24T00:29:28;98224.00;;;8.90
10058;BMP180;5068;51.286;7.518;2022-11-24T00:31:02;98223.00;;;8.90
10058;BMP180;5068;51.286;7.518;2022-11-24T00:32:34;98232.00;;;8.90
10058;BMP180;5068;51.286;7.518;2022-11-24T00:34:12;98225.00;;;8.90
10058;BMP180;5068;51.286;7.518;2022-11-24T00:35:54;98226.00;;;8.80
10058;BMP180;5068;51.286;7.518;2022-11-24T00:37:27;98225.00;;;8.80
10058;BMP180;5068;51.286;7.518;2022-11-24T00:39:05;98230.00;;;8.80
10058;BMP180;5068;51.286;7.518;2022-11-24T00:40:39;98229.00;;;8.80
10058;BMP180;5068;51.286;7.518;2022-11-24T00:42:11;98238.00;;;8.80
10058;BMP180;5068;51.286;7.518;2022-11-24T00:43:45;98231.00;;;8.80
10058;BMP180;5068;51.286;7.518;2022-11-24T00:45:18;98235.00;;;8.80
10058;BMP180;5068;51.286;7.518;2022-11-24T00:46:51;98232.00;;;8.80
10058;BMP180;5068;51.286;7.518;2022-11-24T00:48:25;98239.00;;;8.70
10058;BMP180;5068;51.286;7.518;2022-11-24T00:49:58;98237.00;;;8.70
10058;BMP180;5068;51.286;7.518;2022-11-24T00:51:31;98237.00;;;8.70
10058;BMP180;5068;51.286;7.518;2022-11-24T00:53:05;98246.00;;;8.70
10058;BMP180;5068;51.286;7.518;2022-11-24T00:54:39;98236.00;;;8.70
10058;BMP180;5068;51.286;7.518;2022-11-24T00:56:12;98242.00;;;8.70
10058;BMP180;5068;51.286;7.518;2022-11-24T00:57:45;98240.00;;;8.70
10058;BMP180;5068;51.286;7.518;2022-11-24T00:59:18;98233.00;;;8.70
10058;BMP180;5068;51.286;7.518;2022-11-24T01:00:52;98237.00;;;8.70
10058;BMP180;5068;51.286;7.518;2022-11-24T01:02:25;98249.00;;;8.70
10058;BMP180;5068;51.286;7.518;2022-11-24T01:03:59;98245.00;;;8.60
10058;BMP180;5068;51.286;7.518;2022-11-24T01:05:35;98249.00;;;8.60
10058;BMP180;5068;51.286;7.518;2022-11-24T01:07:08;98250.00;;;8.70
10058;BMP180;5068;51.286;7.518;2022-11-24T01:08:42;98247.00;;;8.60
10058;BMP180;5068;51.286;7.518;2022-11-24T01:10:17;98249.00;;;8.70
10058;BMP180;5068;51.286;7.518;2022-11-24T01:11:50;98257.00;;;8.70
10058;BMP180;5068;51.286;7.518;2022-11-24T01:13:35;98251.00;;;8.70
10058;BMP180;5068;51.286;7.518;2022-11-24T01:15:08;98257.00;;;8.70
10058;BMP180;5068;51.286;7.518;2022-11-24T01:16:41;98261.00;;;8.70
10058;BMP180;5068;51.286;7.518;2022-11-24T01:18:14;98262.00;;;8.70
10058;BMP180;5068;51.286;7.518;2022-11-24T01:19:47;98258.00;;;8.60
10058;BMP180;5068;51.286;7.518;2022-11-24T01:21:20;98260.00;;;8.60
10058;BMP180;5068;51.286;7.518;2022-11-24T01:22:53;98251.00;;;8.60
10058;BMP180;5068;51.286;7.518;2022-11-24T01:24:25;98259.00;;;8.50
10058;BMP180;5068;51.286;7.518;2022-11-24T01:26:03;98263.00;;;8.50
10058;BMP180;5068;51.286;7.518;2022-11-24T01:27:37;98264.00;;;8.50
10058;BMP180;5068;51.286;7.518;2022-11-24T01:29:11;98259.00;;;8.50
10058;BMP180;5068;51.286;7.518;2022-11-24T01:30:43;98265.00;;;8.50
10058;BMP180;5068;51.286;7.518;2022-11-24T01:32:18;98264.00;;;8.50
10058;BMP180;5068;51.286;7.518;2022-11-24T01:33:51;98258.00;;;8.50
10058;BMP180;5068;51.286;7.518;2022-11-24T01:35:24;98270.00;;;8.50
10058;BMP180;5068;51.286;7.518;2022-11-24T01:36:58;98266.00;;;8.50
10058;BMP180;5068;51.286;7.518;2022-11-24T01:38:31;98266.00;;;8.40
10058;BMP180;5068;51.286;7.518;2022-11-24T01:40:07;98267.00;;;8.40
10058;BMP180;5068;51.286;7.518;2022-11-24T01:41:42;98262.00;;;8.40
10058;BMP180;5068;51.286;7.518;2022-11-24T01:43:18;98268.00;;;8.40
10058;BMP180;5068;51.286;7.518;2022-11-24T01:45:40;98268.00;;;8.40
10058;BMP180;5068;51.286;7.518;2022-11-24T01:47:32;98272.00;;;8.40
10058;BMP180;5068;51.286;7.518;2022-11-24T01:49:13;98274.00;;;8.40
10058;BMP180;5068;51.286;7.518;2022-11-24T01:50:54;98271.00;;;8.30
10058;BMP180;5068;51.286;7.518;2022-11-24T01:52:35;98270.00;;;8.30
10058;BMP180;5068;51.286;7.518;2022-11-24T01:54:15;98268.00;;;8.20
10058;BMP180;5068;51.286;7.518;2022-11-24T01:55:51;98268.00;;;8.20
10058;BMP180;5068;51.286;7.518;2022-11-24T01:57:29;98271.00;;;8.20
10058;BMP180;5068;51.286;7.518;2022-11-24T01:59:10;98268.00;;;8.10
10058;BMP180;5068;51.286;7.518;2022-11-24T02:00:50;98280.00;;;8.10
10058;BMP180;5068;51.286;7.518;2022-11-24T02:02:27;98267.00;;;8.10
10058;BMP180;5068;51.286;7.518;2022-11-24T02:04:05;98269.00;;;8.10
10058;BMP180;5068;51.286;7.518;2022-11-24T02:05:46;98279.00;;;8.00
10058;BMP180;5068;51.286;7.518;2022-11-24T02:07:21;98288.00;;;8.00
10058;BMP180;5068;51.286;7.518;2022-11-24T02:08:57;98285.00;;;8.00
10058;BMP180;5068;51.286;7.518;2022-11-24T02:10:32;98284.00;;;7.90
10058;BMP180;5068;51.286;7.518;2022-11-24T02:12:06;98292.00;;;7.90
10058;BMP180;5068;51.286;7.518;2022-11-24T02:13:42;98285.00;;;7.90
10058;BMP180;5068;51.286;7.518;2022-11-24T02:15:17;98283.00;;;7.90
10058;BMP180;5068;51.286;7.518;2022-11-24T02:16:51;98282.00;;;7.90
10058;BMP180;5068;51.286;7.518;2022-11-24T02:18:25;98288.00;;;7.90
10058;BMP180;5068;51.286;7.518;2022-11-24T02:20:01;98289.00;;;7.90
10058;BMP180;5068;51.286;7.518;2022-11-24T02:21:35;98289.00;;;7.90
10058;BMP180;5068;51.286;7.518;2022-11-24T02:23:18;98285.00;;;7.90
10058;BMP180;5068;51.286;7.518;2022-11-24T02:25:00;98292.00;;;7.90
10058;BMP180;5068;51.286;7.518;2022-11-24T02:26:40;98294.00;;;7.90
10058;BMP180;5068;51.286;7.518;2022-11-24T02:28:18;98303.00;;;7.90
10058;BMP180;5068;51.286;7.518;2022-11-24T02:29:53;98306.00;;;7.90
10058;BMP180;5068;51.286;7.518;2022-11-24T02:31:26;98304.00;;;7.90
10058;BMP180;5068;51.286;7.518;2022-11-24T02:33:00;98306.00;;;7.90
10058;BMP180;5068;51.286;7.518;2022-11-24T02:34:34;98302.00;;;7.90
10058;BMP180;5068;51.286;7.518;2022-11-24T02:36:08;98305.00;;;7.90
10058;BMP180;5068;51.286;7.518;2022-11-24T02:37:41;98300.00;;;7.90
10058;BMP180;5068;51.286;7.518;2022-11-24T02:39:14;98297.00;;;7.90
10058;BMP180;5068;51.286;7.518;2022-11-24T02:40:48;98297.00;;;7.90
10058;BMP180;5068;51.286;7.518;2022-11-24T02:42:25;98304.00;;;7.90
10058;BMP180;5068;51.286;7.518;2022-11-24T02:44:01;98301.00;;;7.90
10058;BMP180;5068;51.286;7.518;2022-11-24T02:45:34;98303.00;;;7.90
10058;BMP180;5068;51.286;7.518;2022-11-24T02:47:09;98303.00;;;7.90
10058;BMP180;5068;51.286;7.518;2022-11-24T02:48:43;98311.00;;;7.90
10058;BMP180;5068;51.286;7.518;2022-11-24T02:50:16;98301.00;;;7.90
10058;BMP180;5068;51.286;7.518;2022-11-24T02:51:49;98308.00;;;7.90
10058;BMP180;5068;51.286;7.518;2022-11-24T02:53:22;98301.00;;;7.90
10058;BMP180;5068;51.286;7.518;2022-11-24T02:54:54;98314.00;;;7.90
10058;BMP180;5068;51.286;7.518;2022-11-24T02:56:27;98311.00;;;7.90
10058;BMP180;5068;51.286;7.518;2022-11-24T02:58:02;98316.00;;;8.00
10058;BMP180;5068;51.286;7.518;2022-11-24T02:59:35;98309.00;;;8.00
10058;BMP180;5068;51.286;7.518;2022-11-24T03:01:09;98311.00;;;8.00
10058;BMP180;5068;51.286;7.518;2022-11-24T03:02:41;98306.00;;;8.00
10058;BMP180;5068;51.286;7.518;2022-11-24T03:04:14;98317.00;;;8.00
10058;BMP180;5068;51.286;7.518;2022-11-24T03:05:48;98314.00;;;8.00
10058;BMP180;5068;51.286;7.518;2022-11-24T03:07:20;98309.00;;;8.10
10058;BMP180;5068;51.286;7.518;2022-11-24T03:08:53;98323.00;;;8.10
10058;BMP180;5068;51.286;7.518;2022-11-24T03:10:27;98316.00;;;8.10
10058;BMP180;5068;51.286;7.518;2022-11-24T03:12:00;98312.00;;;8.10
10058;BMP180;5068;51.286;7.518;2022-11-24T03:13:35;98318.00;;;8.10
10058;BMP180;5068;51.286;7.518;2022-11-24T03:15:09;98321.00;;;8.10
10058;BMP180;5068;51.286;7.518;2022-11-24T03:16:42;98328.00;;;8.10
10058;BMP180;5068;51.286;7.518;2022-11-24T03:18:15;98316.00;;;8.10
10058;BMP180;5068;51.286;7.518;2022-11-24T03:19:49;98317.00;;;8.20
10058;BMP180;5068;51.286;7.518;2022-11-24T03:21:22;98315.00;;;8.20
10058;BMP180;5068;51.286;7.518;2022-11-24T03:22:55;98314.00;;;8.20
10058;BMP180;5068;51.286;7.518;2022-11-24T03:24:29;98327.00;;;8.20
10058;BMP180;5068;51.286;7.518;2022-11-24T03:26:07;98323.00;;;8.30
10058;BMP180;5068;51.286;7.518;2022-11-24T03:27:40;98322.00;;;8.30
10058;BMP180;5068;51.286;7.518;2022-11-24T03:29:15;98319.00;;;8.30
10058;BMP180;5068;51.286;7.518;2022-11-24T03:30:48;98316.00;;;8.30
10058;BMP180;5068;51.286;7.518;2022-11-24T03:32:22;98323.00;;;8.40
10058;BMP180;5068;51.286;7.518;2022-11-24T03:33:55;98320.00;;;8.40
10058;BMP180;5068;51.286;7.518;2022-11-24T03:35:28;98315.00;;;8.40
10058;BMP180;5068;51.286;7.518;2022-11-24T03:37:01;98311.00;;;8.50
10058;BMP180;5068;51.286;7.518;2022-11-24T03:38:35;98309.00;;;8.50
10058;BMP180;5068;51.286;7.518;2022-11-24T03:40:08;98319.00;;;8.50
10058;BMP180;5068;51.286;7.518;2022-11-24T03:41:41;98313.00;;;8.60
10058;BMP180;5068;51.286;7.518;2022-11-24T03:43:15;98316.00;;;8.60
10058;BMP180;5068;51.286;7.518;2022-11-24T03:44:49;98313.00;;;8.60
10058;BMP180;5068;51.286;7.518;2022-11-24T03:46:21;98318.00;;;8.60
10058;BMP180;5068;51.286;7.518;2022-11-24T03:47:55;98325.00;;;8.70
10058;BMP180;5068;51.286;7.518;2022-11-24T03:49:28;98320.00;;;8.70
10058;BMP180;5068;51.286;7.518;2022-11-24T03:51:02;98316.00;;;8.70
10058;BMP180;5068;51.286;7.518;2022-11-24T03:52:34;98315.00;;;8.70
10058;BMP180;5068;51.286;7.518;2022-11-24T03:54:08;98323.00;;;8.80
10058;BMP180;5068;51.286;7.518;2022-11-24T03:55:42;98325.00;;;8.80
10058;BMP180;5068;51.286;7.518;2022-11-24T03:57:14;98322.00;;;8.80
10058;BMP180;5068;51.286;7.518;2022-11-24T03:58:48;98330.00;;;8.90
10058;BMP180;5068;51.286;7.518;2022-11-24T04:00:22;98326.00;;;8.90
10058;BMP180;5068;51.286;7.518;2022-11-24T04:01:55;98339.00;;;8.90
10058;BMP180;5068;51.286;7.518;2022-11-24T04:03:29;98326.00;;;8.90
10058;BMP180;5068;51.286;7.518;2022-11-24T04:05:03;98329.00;;;8.90
10058;BMP180;5068;51.286;7.518;2022-11-24T04:06:36;98330.00;;;8.90
10058;BMP180;5068;51.286;7.518;2022-11-24T04:08:09;98345.00;;;8.90
10058;BMP180;5068;51.286;7.518;2022-11-24T04:09:43;98343.00;;;8.90
10058;BMP180;5068;51.286;7.518;2022-11-24T04:11:15;98342.00;;;8.90
10058;BMP180;5068;51.286;7.518;2022-11-24T04:13:03;98346.00;;;8.90
10058;BMP180;5068;51.286;7.518;2022-11-24T04:14:37;98352.00;;;8.90
10058;BMP180;5068;51.286;7.518;2022-11-24T04:16:10;98348.00;;;8.90
10058;BMP180;5068;51.286;7.518;2022-11-24T04:17:45;98340.00;;;8.80
10058;BMP180;5068;51.286;7.518;2022-11-24T04:19:19;98355.00;;;8.90
10058;BMP180;5068;51.286;7.518;2022-11-24T04:20:52;98341.00;;;8.90
10058;BMP180;5068;51.286;7.518;2022-11-24T04:22:25;98339.00;;;8.90
10058;BMP180;5068;51.286;7.518;2022-11-24T04:23:58;98329.00;;;8.90
10058;BMP180;5068;51.286;7.518;2022-11-24T04:25:32;98334.00;;;8.90
10058;BMP180;5068;51.286;7.518;2022-11-24T04:27:05;98337.00;;;8.90
10058;BMP180;5068;51.286;7.518;2022-11-24T04:28:37;98337.00;;;8.90
10058;BMP180;5068;51.286;7.518;2022-11-24T04:30:11;98347.00;;;8.90
10058;BMP180;5068;51.286;7.518;2022-11-24T04:31:45;98344.00;;;8.90
10058;BMP180;5068;51.286;7.518;2022-11-24T04:33:18;98350.00;;;9.00
10058;BMP180;5068;51.286;7.518;2022-11-24T04:34:52;98348.00;;;9.00
10058;BMP180;5068;51.286;7.518;2022-11-24T04:36:25;98348.00;;;9.00
10058;BMP180;5068;51.286;7.518;2022-11-24T04:38:01;98362.00;;;9.00
10058;BMP180;5068;51.286;7.518;2022-11-24T04:39:34;98350.00;;;9.00
10058;BMP180;5068;51.286;7.518;2022-11-24T04:41:07;98365.00;;;9.00
10058;BMP180;5068;51.286;7.518;2022-11-24T04:42:41;98359.00;;;9.00
10058;BMP180;5068;51.286;7.518;2022-11-24T04:44:14;98358.00;;;9.00
10058;BMP180;5068;51.286;7.518;2022-11-24T04:45:48;98374.00;;;9.00
10058;BMP180;5068;51.286;7.518;2022-11-24T04:47:24;98358.00;;;9.00
10058;BMP180;5068;51.286;7.518;2022-11-24T04:48:58;98366.00;;;9.00
10058;BMP180;5068;51.286;7.518;2022-11-24T04:50:31;98369.00;;;9.10
10058;BMP180;5068;51.286;7.518;2022-11-24T04:52:04;98369.00;;;9.10
10058;BMP180;5068;51.286;7.518;2022-11-24T04:53:37;98367.00;;;9.10
10058;BMP180;5068;51.286;7.518;2022-11-24T04:55:10;98372.00;;;9.10
10058;BMP180;5068;51.286;7.518;2022-11-24T04:56:43;98374.00;;;9.20
10058;BMP180;5068;51.286;7.518;2022-11-24T04:58:16;98379.00;;;9.20
10058;BMP180;5068;51.286;7.518;2022-11-24T04:59:50;98365.00;;;9.20
10058;BMP180;5068;51.286;7.518;2022-11-24T05:01:24;98380.00;;;9.20
10058;BMP180;5068;51.286;7.518;2022-11-24T05:02:58;98388.00;;;9.20
10058;BMP180;5068;51.286;7.518;2022-11-24T05:04:31;98380.00;;;9.20
10058;BMP180;5068;51.286;7.518;2022-11-24T05:06:05;98390.00;;;9.20
10058;BMP180;5068;51.286;7.518;2022-11-24T05:07:39;98380.00;;;9.30
10058;BMP180;5068;51.286;7.518;2022-11-24T05:09:14;98392.00;;;9.30
10058;BMP180;5068;51.286;7.518;2022-11-24T05:10:48;98397.00;;;9.30
10058;BMP180;5068;51.286;7.518;2022-11-24T05:12:21;98388.00;;;9.40
10058;BMP180;5068;51.286;7.518;2022-11-24T05:13:55;98395.00;;;9.40
10058;BMP180;5068;51.286;7.518;2022-11-24T05:15:29;98401.00;;;9.40
10058;BMP180;5068;51.286;7.518;2022-11-24T05:17:02;98402.00;;;9.40
10058;BMP180;5068;51.286;7.518;2022-11-24T05:18:36;98400.00;;;9.50
10058;BMP180;5068;51.286;7.518;2022-11-24T05:20:10;98401.00;;;9.50
10058;BMP180;5068;51.286;7.518;2022-11-24T05:21:42;98406.00;;;9.50
10058;BMP180;5068;51.286;7.518;2022-11-24T05:23:16;98407.00;;;9.50
10058;BMP180;5068;51.286;7.518;2022-11-24T05:24:49;98414.00;;;9.50
10058;BMP180;5068;51.286;7.518;2022-11-24T05:26:22;98408.00;;;9.50
10058;BMP180;5068;51.286;7.518;2022-11-24T05:27:59;98411.00;;;9.50
10058;BMP180;5068;51.286;7.518;2022-11-24T05:29:32;98417.00;;;9.60
10058;BMP180;5068;51.286;7.518;2022-11-24T05:31:04;98410.00;;;9.60
10058;BMP180;5068;51.286;7.518;2022-11-24T05:32:38;98409.00;;;9.60
10058;BMP180;5068;51.286;7.518;2022-11-24T05:34:11;98419.00;;;9.60
10058;BMP180;5068;51.286;7.518;2022-11-24T05:35:45;98419.00;;;9.70
10058;BMP180;5068;51.286;7.518;2022-11-24T05:37:20;98413.00;;;9.70
10058;BMP180;5068;51.286;7.518;2022-11-24T05:38:52;98415.00;;;9.70
10058;BMP180;5068;51.286;7.518;2022-11-24T05:40:25;98417.00;;;9.70
10058;BMP180;5068;51.286;7.518;2022-11-24T05:41:57;98418.00;;;9.80
10058;BMP180;5068;51.286;7.518;2022-11-24T05:43:31;98422.00;;;9.80
10058;BMP180;5068;51.286;7.518;2022-11-24T05:45:06;98423.00;;;9.80
10058;BMP180;5068;51.286;7.518;2022-11-24T05:46:40;98427.00;;;9.90
10058;BMP180;5068;51.286;7.518;2022-11-24T05:48:14;98420.00;;;9.90
10058;BMP180;5068;51.286;7.518;2022-11-24T05:49:49;98420.00;;;9.90
10058;BMP180;5068;51.286;7.518;2022-11-24T05:51:21;98418.00;;;9.90
10058;BMP180;5068;51.286;7.518;2022-11-24T05:52:54;98418.00;;;9.90
10058;BMP180;5068;51.286;7.518;2022-11-24T05:54:27;98421.00;;;9.90
10058;BMP180;5068;51.286;7.518;2022-11-24T05:56:02;98422.00;;;9.90
10058;BMP180;5068;51.286;7.518;2022-11-24T05:57:35;98429.00;;;9.90
10058;BMP180;5068;51.286;7.518;2022-11-24T05:59:08;98431.00;;;10.00
10058;BMP180;5068;51.286;7.518;2022-11-24T06:00:41;98430.00;;;10.00
10058;BMP180;5068;51.286;7.518;2022-11-24T06:02:15;98433.00;;;10.00
10058;BMP180;5068;51.286;7.518;2022-11-24T06:03:47;98438.00;;;10.00
10058;BMP180;5068;51.286;7.518;2022-11-24T06:05:22;98438.00;;;10.10
10058;BMP180;5068;51.286;7.518;2022-11-24T06:06:55;98434.00;;;10.10
10058;BMP180;5068;51.286;7.518;2022-11-24T06:08:28;98452.00;;;10.10
10058;BMP180;5068;51.286;7.518;2022-11-24T06:10:03;98442.00;;;10.10
10058;BMP180;5068;51.286;7.518;2022-11-24T06:11:36;98449.00;;;10.10
10058;BMP180;5068;51.286;7.518;2022-11-24T06:13:10;98444.00;;;10.20
10058;BMP180;5068;51.286;7.518;2022-11-24T06:14:43;98446.00;;;10.20
10058;BMP180;5068;51.286;7.518;2022-11-24T06:16:16;98451.00;;;10.20
10058;BMP180;5068;51.286;7.518;2022-11-24T06:17:53;98451.00;;;10.20
10058;BMP180;5068;51.286;7.518;2022-11-24T06:19:27;98447.00;;;10.20
10058;BMP180;5068;51.286;7.518;2022-11-24T06:21:03;98448.00;;;10.20
10058;BMP180;5068;51.286;7.518;2022-11-24T06:22:43;98450.00;;;10.30
10058;BMP180;5068;51.286;7.518;2022-11-24T06:24:17;98452.00;;;10.30
10058;BMP180;5068;51.286;7.518;2022-11-24T06:25:50;98447.00;;;10.30
10058;BMP180;5068;51.286;7.518;2022-11-24T06:27:23;98468.00;;;10.30
10058;BMP180;5068;51.286;7.518;2022-11-24T06:28:58;98467.00;;;10.30
10058;BMP180;5068;51.286;7.518;2022-11-24T06:30:32;98467.00;;;10.30
10058;BMP180;5068;51.286;7.518;2022-11-24T06:32:05;98465.00;;;10.30
10058;BMP180;5068;51.286;7.518;2022-11-24T06:33:39;98460.00;;;10.30
10058;BMP180;5068;51.286;7.518;2022-11-24T06:35:12;98475.00;;;10.40
10058;BMP180;5068;51.286;7.518;2022-11-24T06:36:47;98459.00;;;10.40
10058;BMP180;5068;51.286;7.518;2022-11-24T06:38:20;98469.00;;;10.40
10058;BMP180;5068;51.286;7.518;2022-11-24T06:39:55;98473.00;;;10.40
10058;BMP180;5068;51.286;7.518;2022-11-24T06:41:29;98481.00;;;10.50
10058;BMP180;5068;51.286;7.518;2022-11-24T06:43:03;98487.00;;;10.50
10058;BMP180;5068;51.286;7.518;2022-11-24T06:44:36;98485.00;;;10.50
10058;BMP180;5068;51.286;7.518;2022-11-24T06:46:10;98493.00;;;10.50
10058;BMP180;5068;51.286;7.518;2022-11-24T06:47:44;98492.00;;;10.50
10058;BMP180;5068;51.286;7.518;2022-11-24T06:49:17;98493.00;;;10.50
10058;BMP180;5068;51.286;7.518;2022-11-24T06:50:51;98492.00;;;10.50
10058;BMP180;5068;51.286;7.518;2022-11-24T06:52:26;98485.00;;;10.50
10058;BMP180;5068;51.286;7.518;2022-11-24T06:53:59;98489.00;;;10.50
10058;BMP180;5068;51.286;7.518;2022-11-24T06:55:33;98496.00;;;10.50
10058;BMP180;5068;51.286;7.518;2022-11-24T06:57:06;98494.00;;;10.50
10058;BMP180;5068;51.286;7.518;2022-11-24T06:58:40;98494.00;;;10.50
10058;BMP180;5068;51.286;7.518;2022-11-24T07:00:15;98492.00;;;10.50
10058;BMP180;5068;51.286;7.518;2022-11-24T07:01:49;98493.00;;;10.50
10058;BMP180;5068;51.286;7.518;2022-11-24T07:03:23;98504.00;;;10.50
10058;BMP180;5068;51.286;7.518;2022-11-24T07:04:59;98502.00;;;10.60
10058;BMP180;5068;51.286;7.518;2022-11-24T07:06:32;98514.00;;;10.60
10058;BMP180;5068;51.286;7.518;2022-11-24T07:08:07;98509.00;;;10.60
10058;BMP180;5068;51.286;7.518;2022-11-24T07:09:48;98520.00;;;10.60
10058;BMP180;5068;51.286;7.518;2022-11-24T07:11:22;98516.00;;;10.60
10058;BMP180;5068;51.286;7.518;2022-11-24T07:12:56;98516.00;;;10.60
10058;BMP180;5068;51.286;7.518;2022-11-24T07:14:29;98536.00;;;10.70
10058;BMP180;5068;51.286;7.518;2022-11-24T07:16:12;98519.00;;;10.70
10058;BMP180;5068;51.286;7.518;2022-11-24T07:17:45;98541.00;;;10.70
10058;BMP180;5068;51.286;7.518;2022-11-24T07:19:18;98536.00;;;10.70
10058;BMP180;5068;51.286;7.518;2022-11-24T07:20:56;98543.00;;;10.70
10058;BMP180;5068;51.286;7.518;2022-11-24T07:22:29;98538.00;;;10.70
10058;BMP180;5068;51.286;7.518;2022-11-24T07:24:05;98553.00;;;10.70
10058;BMP180;5068;51.286;7.518;2022-11-24T07:25:38;98542.00;;;10.70
10058;BMP180;5068;51.286;7.518;2022-11-24T07:27:11;98557.00;;;10.80
10058;BMP180;5068;51.286;7.518;2022-11-24T07:28:45;98557.00;;;10.80
10058;BMP180;5068;51.286;7.518;2022-11-24T07:30:19;98540.00;;;10.80
10058;BMP180;5068;51.286;7.518;2022-11-24T07:31:52;98547.00;;;10.80
10058;BMP180;5068;51.286;7.518;2022-11-24T07:33:25;98546.00;;;10.80
10058;BMP180;5068;51.286;7.518;2022-11-24T07:34:58;98543.00;;;10.80
10058;BMP180;5068;51.286;7.518;2022-11-24T07:36:32;98556.00;;;10.80
10058;BMP180;5068;51.286;7.518;2022-11-24T07:38:05;98557.00;;;10.80
10058;BMP180;5068;51.286;7.518;2022-11-24T07:39:40;98560.00;;;10.80
10058;BMP180;5068;51.286;7.518;2022-11-24T07:41:15;98565.00;;;10.90
10058;BMP180;5068;51.286;7.518;2022-11-24T07:42:50;98559.00;;;10.90
10058;BMP180;5068;51.286;7.518;2022-11-24T07:44:23;98563.00;;;10.90
10058;BMP180;5068;51.286;7.518;2022-11-24T07:45:56;98574.00;;;10.90
10058;BMP180;5068;51.286;7.518;2022-11-24T07:47:30;98572.00;;;10.90
10058;BMP180;5068;51.286;7.518;2022-11-24T07:49:04;98579.00;;;10.90
10058;BMP180;5068;51.286;7.518;2022-11-24T07:50:37;98581.00;;;10.90
10058;BMP180;5068;51.286;7.518;2022-11-24T07:52:11;98579.00;;;10.90
10058;BMP180;5068;51.286;7.518;2022-11-24T07:53:44;98580.00;;;10.90
10058;BMP180;5068;51.286;7.518;2022-11-24T07:55:19;98592.00;;;10.90
10058;BMP180;5068;51.286;7.518;2022-11-24T07:56:53;98582.00;;;10.90
10058;BMP180;5068;51.286;7.518;2022-11-24T07:58:27;98598.00;;;10.90
10058;BMP180;5068;51.286;7.518;2022-11-24T08:00:06;98596.00;;;11.00
10058;BMP180;5068;51.286;7.518;2022-11-24T08:01:40;98599.00;;;11.00
10058;BMP180;5068;51.286;7.518;2022-11-24T08:03:13;98602.00;;;10.90
10058;BMP180;5068;51.286;7.518;2022-11-24T08:04:47;98608.00;;;10.90
10058;BMP180;5068;51.286;7.518;2022-11-24T08:06:20;98607.00;;;11.00
10058;BMP180;5068;51.286;7.518;2022-11-24T08:07:59;98604.00;;;11.00
10058;BMP180;5068;51.286;7.518;2022-11-24T08:09:33;98606.00;;;11.00
10058;BMP180;5068;51.286;7.518;2022-11-24T08:11:10;98620.00;;;11.00
10058;BMP180;5068;51.286;7.518;2022-11-24T08:12:44;98619.00;;;11.00
10058;BMP180;5068;51.286;7.518;2022-11-24T08:14:17;98625.00;;;11.00
10058;BMP180;5068;51.286;7.518;2022-11-24T08:15:51;98622.00;;;11.10
10058;BMP180;5068;51.286;7.518;2022-11-24T08:17:24;98627.00;;;11.10
10058;BMP180;5068;51.286;7.518;2022-11-24T08:18:57;98642.00;;;11.10
10058;BMP180;5068;51.286;7.518;2022-11-24T08:20:30;98634.00;;;11.10
10058;BMP180;5068;51.286;7.518;2022-11-24T08:22:03;98652.00;;;11.10
10058;BMP180;5068;51.286;7.518;2022-11-24T08:23:37;98648.00;;;11.10
10058;BMP180;5068;51.286;7.518;2022-11-24T08:25:10;98647.00;;;11.10
10058;BMP180;5068;51.286;7.518;2022-11-24T08:26:46;98647.00;;;11.10
10058;BMP180;5068;51.286;7.518;2022-11-24T08:28:20;98656.00;;;11.20
10058;BMP180;5068;51.286;7.518;2022-11-24T08:29:53;98653.00;;;11.20
10058;BMP180;5068;51.286;7.518;2022-11-24T08:31:28;98647.00;;;11.20
10058;BMP180;5068;51.286;7.518;2022-11-24T08:33:05;98642.00;;;11.20
10058;BMP180;5068;51.286;7.518;2022-11-24T08:34:38;98649.00;;;11.20
10058;BMP180;5068;51.286;7.518;2022-11-24T08:36:13;98649.00;;;11.20
10058;BMP180;5068;51.286;7.518;2022-11-24T08:37:47;98652.00;;;11.20
10058;BMP180;5068;51.286;7.518;2022-11-24T08:39:20;98651.00;;;11.20
10058;BMP180;5068;51.286;7.518;2022-11-24T08:40:53;98653.00;;;11.20
10058;BMP180;5068;51.286;7.518;2022-11-24T08:42:28;98660.00;;;11.20
10058;BMP180;5068;51.286;7.518;2022-11-24T08:44:01;98664.00;;;11.20
10058;BMP180;5068;51.286;7.518;2022-11-24T08:45:34;98668.00;;;11.20
10058;BMP180;5068;51.286;7.518;2022-11-24T08:47:12;98670.00;;;11.20
10058;BMP180;5068;51.286;7.518;2022-11-24T08:48:47;98666.00;;;11.20
10058;BMP180;5068;51.286;7.518;2022-11-24T08:50:22;98664.00;;;11.20
10058;BMP180;5068;51.286;7.518;2022-11-24T08:51:56;98670.00;;;11.20
10058;BMP180;5068;51.286;7.518;2022-11-24T08:53:30;98666.00;;;11.20
10058;BMP180;5068;51.286;7.518;2022-11-24T08:55:04;98673.00;;;11.20
10058;BMP180;5068;51.286;7.518;2022-11-24T08:56:37;98675.00;;;11.20
10058;BMP180;5068;51.286;7.518;2022-11-24T08:58:12;98676.00;;;11.20
10058;BMP180;5068;51.286;7.518;2022-11-24T08:59:45;98681.00;;;11.20
10058;BMP180;5068;51.286;7.518;2022-11-24T09:01:18;98667.00;;;11.20
10058;BMP180;5068;51.286;7.518;2022-11-24T09:02:55;98678.00;;;11.20
10058;BMP180;5068;51.286;7.518;2022-11-24T09:04:28;98682.00;;;11.20
10058;BMP180;5068;51.286;7.518;2022-11-24T09:06:02;98688.00;;;11.30
10058;BMP180;5068;51.286;7.518;2022-11-24T09:07:35;98684.00;;;11.30
10058;BMP180;5068;51.286;7.518;2022-11-24T09:09:09;98681.00;;;11.30
10058;BMP180;5068;51.286;7.518;2022-11-24T09:10:42;98694.00;;;11.30
10058;BMP180;5068;51.286;7.518;2022-11-24T09:12:16;98704.00;;;11.30
10058;BMP180;5068;51.286;7.518;2022-11-24T09:13:50;98699.00;;;11.30
10058;BMP180;5068;51.286;7.518;2022-11-24T09:15:24;98707.00;;;11.30
10058;BMP180;5068;51.286;7.518;2022-11-24T09:16:58;98702.00;;;11.40